createdAt,value
2018-08-17T00:00:19.045Z,22.69
2018-08-17T00:00:59.614Z,22.66
2018-08-17T00:01:40.166Z,22.68
2018-08-17T00:02:20.739Z,22.65
2018-08-17T00:03:01.287Z,22.68
2018-08-17T00:03:41.860Z,22.69
2018-08-17T00:04:22.428Z,22.63
2018-08-17T00:05:02.988Z,22.59
2018-08-17T00:05:43.574Z,22.6
2018-08-17T00:06:24.186Z,22.59
2018-08-17T00:07:04.779Z,22.68
2018-08-17T00:07:45.356Z,22.66
2018-08-17T00:08:25.923Z,22.68
2018-08-17T00:09:06.492Z,22.63
2018-08-17T00:09:47.074Z,22.57
2018-08-17T00:10:27.638Z,22.63
2018-08-17T00:11:08.203Z,22.59
2018-08-17T00:11:48.770Z,22.6
2018-08-17T00:12:29.344Z,22.54
2018-08-17T00:13:09.913Z,22.62
2018-08-17T00:13:50.477Z,22.55
2018-08-17T00:14:31.038Z,22.55
2018-08-17T00:15:11.616Z,22.51
2018-08-17T00:15:52.207Z,22.59
2018-08-17T00:16:32.769Z,22.6
2018-08-17T00:17:13.344Z,22.51
2018-08-17T00:17:53.915Z,22.55
2018-08-17T00:18:34.481Z,22.53
2018-08-17T00:19:15.078Z,22.53
2018-08-17T00:19:55.651Z,22.45
2018-08-17T00:20:36.215Z,22.53
2018-08-17T00:21:16.795Z,22.53
2018-08-17T00:21:57.373Z,22.45
2018-08-17T00:22:37.941Z,22.5
2018-08-17T00:23:18.523Z,22.47
2018-08-17T00:23:59.108Z,22.5
2018-08-17T00:24:39.667Z,22.5
2018-08-17T00:25:20.226Z,22.43
2018-08-17T00:26:00.822Z,22.51
2018-08-17T00:26:41.411Z,22.43
2018-08-17T00:27:21.989Z,22.47
2018-08-17T00:28:02.559Z,22.47
2018-08-17T00:28:43.122Z,22.39
2018-08-17T00:29:23.674Z,22.48
2018-08-17T00:30:04.229Z,22.44
2018-08-17T00:30:44.809Z,22.5
2018-08-17T00:31:25.374Z,22.43
2018-08-17T00:32:05.947Z,22.38
2018-08-17T00:32:46.512Z,22.43
2018-08-17T00:33:27.098Z,22.39
2018-08-17T00:34:07.637Z,22.36
2018-08-17T00:34:48.217Z,22.45
2018-08-17T00:35:28.828Z,22.45
2018-08-17T00:36:09.414Z,22.47
2018-08-17T00:36:49.981Z,22.44
2018-08-17T00:37:30.593Z,22.44
2018-08-17T00:38:11.161Z,22.39
2018-08-17T00:38:51.779Z,22.41
2018-08-17T00:39:32.356Z,22.43
2018-08-17T00:40:12.922Z,22.48
2018-08-17T00:40:53.492Z,22.48
2018-08-17T00:41:34.069Z,22.35
2018-08-17T00:42:14.624Z,22.48
2018-08-17T00:42:55.197Z,22.39
2018-08-17T00:43:35.801Z,22.38
2018-08-17T00:44:16.348Z,22.44
2018-08-17T00:44:56.937Z,22.38
2018-08-17T00:45:37.545Z,22.33
2018-08-17T00:46:18.097Z,22.33
2018-08-17T00:46:58.683Z,22.39
2018-08-17T00:47:39.263Z,22.3
2018-08-17T00:48:19.805Z,22.33
2018-08-17T00:49:00.392Z,22.41
2018-08-17T00:49:40.954Z,22.35
2018-08-17T00:50:21.543Z,22.38
2018-08-17T00:51:02.104Z,22.26
2018-08-17T00:51:42.673Z,22.39
2018-08-17T00:52:23.249Z,22.3
2018-08-17T00:53:03.847Z,22.32
2018-08-17T00:53:44.400Z,22.32
2018-08-17T00:54:24.978Z,22.38
2018-08-17T00:55:05.540Z,22.35
2018-08-17T00:55:46.127Z,22.39
2018-08-17T00:56:26.705Z,22.26
2018-08-17T00:57:07.256Z,22.28
2018-08-17T00:57:47.833Z,22.23
2018-08-17T00:58:28.397Z,22.22
2018-08-17T00:59:08.964Z,22.25
2018-08-17T00:59:49.537Z,22.23
2018-08-17T01:00:30.108Z,22.2
2018-08-17T01:01:10.686Z,22.23
2018-08-17T01:01:51.244Z,22.25
2018-08-17T01:02:31.820Z,22.23
2018-08-17T01:03:12.373Z,22.14
2018-08-17T01:03:52.936Z,22.22
2018-08-17T01:04:33.507Z,22.14
2018-08-17T01:05:14.068Z,22.23
2018-08-17T01:05:54.634Z,22.25
2018-08-17T01:06:35.207Z,22.17
2018-08-17T01:07:15.766Z,22.13
2018-08-17T01:07:56.335Z,22.14
2018-08-17T01:08:36.897Z,22.23
2018-08-17T01:09:17.474Z,22.23
2018-08-17T01:09:58.046Z,22.14
2018-08-17T01:10:38.676Z,22.14
2018-08-17T01:11:19.254Z,22.17
2018-08-17T01:11:59.847Z,22.11
2018-08-17T01:12:40.422Z,22.14
2018-08-17T01:13:20.987Z,22.15
2018-08-17T01:14:01.542Z,22.08
2018-08-17T01:14:42.102Z,22.17
2018-08-17T01:15:22.695Z,22.1
2018-08-17T01:16:03.257Z,22.17
2018-08-17T01:16:43.824Z,22.15
2018-08-17T01:17:24.398Z,22.14
2018-08-17T01:18:04.943Z,22.14
2018-08-17T01:18:45.546Z,22.11
2018-08-17T01:19:26.089Z,22.11
2018-08-17T01:20:06.641Z,22.17
2018-08-17T01:20:47.213Z,22.11
2018-08-17T01:21:27.770Z,22.02
2018-08-17T01:22:08.329Z,22
2018-08-17T01:22:48.932Z,22.13
2018-08-17T01:23:29.490Z,22.02
2018-08-17T01:24:10.045Z,22.11
2018-08-17T01:24:50.632Z,22.11
2018-08-17T01:25:31.217Z,22.11
2018-08-17T01:26:11.778Z,22.11
2018-08-17T01:26:52.337Z,22.1
2018-08-17T01:27:32.894Z,22.06
2018-08-17T01:28:13.453Z,22.14
2018-08-17T01:28:54.042Z,22.08
2018-08-17T01:29:34.590Z,22.07
2018-08-17T01:30:15.173Z,22.07
2018-08-17T01:30:55.732Z,22.15
2018-08-17T01:31:36.305Z,22.06
2018-08-17T01:32:16.892Z,22.06
2018-08-17T01:32:57.451Z,22.13
2018-08-17T01:33:38.015Z,22.15
2018-08-17T01:34:18.591Z,22.07
2018-08-17T01:34:59.131Z,22.08
2018-08-17T01:35:39.690Z,22.13
2018-08-17T01:36:20.237Z,22
2018-08-17T01:37:00.786Z,22.06
2018-08-17T01:37:41.354Z,22.11
2018-08-17T01:38:21.925Z,22.04
2018-08-17T01:39:02.515Z,22.07
2018-08-17T01:39:43.089Z,22.08
2018-08-17T01:40:23.680Z,22.02
2018-08-17T01:41:04.252Z,21.96
2018-08-17T01:41:44.815Z,22.02
2018-08-17T01:42:25.391Z,22.02
2018-08-17T01:43:05.968Z,21.99
2018-08-17T01:43:46.530Z,21.92
2018-08-17T01:44:27.109Z,21.89
2018-08-17T01:45:07.649Z,21.96
2018-08-17T01:45:48.220Z,21.93
2018-08-17T01:46:28.786Z,21.96
2018-08-17T01:47:09.354Z,21.92
2018-08-17T01:47:49.917Z,21.98
2018-08-17T01:48:30.482Z,21.95
2018-08-17T01:49:11.059Z,21.96
2018-08-17T01:49:51.633Z,21.92
2018-08-17T01:50:32.190Z,21.95
2018-08-17T01:51:12.739Z,21.89
2018-08-17T01:51:53.358Z,21.91
2018-08-17T01:52:33.937Z,21.89
2018-08-17T01:53:14.501Z,21.92
2018-08-17T01:53:55.070Z,21.82
2018-08-17T01:54:35.633Z,21.8
2018-08-17T01:55:16.193Z,21.93
2018-08-17T01:55:56.780Z,21.85
2018-08-17T01:56:37.328Z,21.8
2018-08-17T01:57:17.897Z,21.93
2018-08-17T01:57:58.485Z,21.83
2018-08-17T01:58:39.047Z,21.89
2018-08-17T01:59:19.603Z,21.85
2018-08-17T02:00:00.179Z,21.82
2018-08-17T02:00:40.774Z,21.82
2018-08-17T02:01:21.334Z,21.88
2018-08-17T02:02:01.928Z,21.8
2018-08-17T02:02:42.498Z,21.8
2018-08-17T02:03:23.066Z,21.83
2018-08-17T02:04:03.627Z,21.82
2018-08-17T02:04:44.195Z,21.77
2018-08-17T02:05:24.780Z,21.8
2018-08-17T02:06:05.368Z,21.89
2018-08-17T02:06:45.953Z,21.85
2018-08-17T02:07:26.520Z,21.89
2018-08-17T02:08:07.079Z,21.77
2018-08-17T02:08:47.697Z,21.82
2018-08-17T02:09:28.321Z,21.83
2018-08-17T02:10:08.902Z,21.75
2018-08-17T02:10:49.505Z,21.8
2018-08-17T02:11:30.039Z,21.7
2018-08-17T02:12:10.599Z,21.73
2018-08-17T02:12:51.166Z,21.79
2018-08-17T02:13:31.735Z,21.76
2018-08-17T02:14:12.355Z,21.76
2018-08-17T02:14:52.973Z,21.7
2018-08-17T02:15:33.524Z,21.64
2018-08-17T02:16:14.073Z,21.76
2018-08-17T02:16:54.641Z,21.72
2018-08-17T02:17:35.197Z,21.66
2018-08-17T02:18:15.764Z,21.66
2018-08-17T02:18:56.317Z,21.61
2018-08-17T02:19:36.879Z,21.62
2018-08-17T02:20:17.483Z,21.69
2018-08-17T02:20:58.040Z,21.69
2018-08-17T02:21:38.610Z,21.7
2018-08-17T02:22:19.191Z,21.69
2018-08-17T02:22:59.752Z,21.64
2018-08-17T02:23:40.324Z,21.67
2018-08-17T02:24:20.894Z,21.64
2018-08-17T02:25:01.463Z,21.6
2018-08-17T02:25:42.013Z,21.55
2018-08-17T02:26:22.576Z,21.55
2018-08-17T02:27:03.134Z,21.66
2018-08-17T02:27:43.701Z,21.55
2018-08-17T02:28:24.278Z,21.55
2018-08-17T02:29:04.848Z,21.54
2018-08-17T02:29:45.423Z,21.57
2018-08-17T02:30:25.992Z,21.51
2018-08-17T02:31:06.602Z,21.5
2018-08-17T02:31:47.181Z,21.64
2018-08-17T02:32:27.762Z,21.66
2018-08-17T02:33:08.383Z,21.48
2018-08-17T02:33:48.928Z,21.5
2018-08-17T02:34:29.501Z,21.43
2018-08-17T02:35:10.081Z,21.64
2018-08-17T02:35:50.648Z,21.6
2018-08-17T02:36:31.207Z,21.51
2018-08-17T02:37:11.798Z,21.5
2018-08-17T02:37:52.373Z,21.64
2018-08-17T02:38:32.936Z,21.48
2018-08-17T02:39:13.534Z,21.48
2018-08-17T02:39:54.182Z,21.5
2018-08-17T02:40:34.727Z,21.5
2018-08-17T02:41:15.297Z,21.5
2018-08-17T02:41:55.861Z,21.55
2018-08-17T02:42:36.403Z,21.48
2018-08-17T02:43:17.014Z,21.52
2018-08-17T02:43:57.574Z,21.42
2018-08-17T02:44:38.141Z,21.46
2018-08-17T02:45:18.695Z,21.55
2018-08-17T02:45:59.282Z,21.43
2018-08-17T02:46:39.854Z,21.45
2018-08-17T02:47:20.441Z,21.45
2018-08-17T02:48:00.996Z,21.54
2018-08-17T02:48:41.541Z,21.43
2018-08-17T02:49:22.100Z,21.48
2018-08-17T02:50:02.659Z,21.46
2018-08-17T02:50:43.215Z,21.42
2018-08-17T02:51:23.776Z,21.48
2018-08-17T02:52:04.331Z,21.46
2018-08-17T02:52:44.903Z,21.37
2018-08-17T02:53:25.473Z,21.46
2018-08-17T02:54:06.038Z,21.45
2018-08-17T02:54:46.579Z,21.48
2018-08-17T02:55:27.140Z,21.46
2018-08-17T02:56:07.706Z,21.51
2018-08-17T02:56:48.259Z,21.51
2018-08-17T02:57:28.841Z,21.45
2018-08-17T02:58:09.404Z,21.42
2018-08-17T02:58:49.992Z,21.45
2018-08-17T02:59:30.643Z,21.48
2018-08-17T03:00:11.198Z,21.54
2018-08-17T03:00:51.761Z,21.46
2018-08-17T03:01:32.327Z,21.48
2018-08-17T03:02:12.895Z,21.37
2018-08-17T03:02:53.444Z,21.4
2018-08-17T03:03:34.045Z,21.43
2018-08-17T03:04:14.585Z,21.42
2018-08-17T03:04:55.153Z,21.39
2018-08-17T03:05:35.743Z,21.35
2018-08-17T03:06:16.295Z,21.36
2018-08-17T03:06:56.848Z,21.37
2018-08-17T03:07:37.405Z,21.37
2018-08-17T03:08:17.976Z,21.32
2018-08-17T03:08:58.579Z,21.32
2018-08-17T03:09:39.172Z,21.3
2018-08-17T03:10:19.722Z,21.37
2018-08-17T03:11:00.300Z,21.36
2018-08-17T03:11:40.880Z,21.35
2018-08-17T03:12:21.439Z,21.36
2018-08-17T03:13:02.015Z,21.27
2018-08-17T03:13:42.561Z,21.36
2018-08-17T03:14:23.110Z,21.35
2018-08-17T03:15:03.683Z,21.3
2018-08-17T03:15:44.234Z,21.37
2018-08-17T03:16:24.847Z,21.32
2018-08-17T03:17:05.431Z,21.33
2018-08-17T03:17:46.044Z,21.32
2018-08-17T03:18:26.595Z,21.27
2018-08-17T03:19:07.173Z,21.25
2018-08-17T03:19:47.724Z,21.29
2018-08-17T03:20:28.276Z,21.24
2018-08-17T03:21:08.869Z,21.29
2018-08-17T03:21:49.431Z,21.3
2018-08-17T03:22:30.006Z,21.29
2018-08-17T03:23:10.547Z,21.27
2018-08-17T03:23:51.159Z,21.29
2018-08-17T03:24:31.729Z,21.32
2018-08-17T03:25:12.303Z,21.18
2018-08-17T03:25:52.866Z,21.24
2018-08-17T03:26:33.459Z,21.17
2018-08-17T03:27:14.015Z,21.2
2018-08-17T03:27:54.588Z,21.14
2018-08-17T03:28:35.149Z,21.2
2018-08-17T03:29:15.703Z,21.18
2018-08-17T03:29:56.293Z,21.22
2018-08-17T03:30:36.866Z,21.21
2018-08-17T03:31:17.439Z,21.17
2018-08-17T03:31:58.001Z,21.15
2018-08-17T03:32:38.560Z,21.18
2018-08-17T03:33:19.104Z,21.09
2018-08-17T03:33:59.678Z,21.2
2018-08-17T03:34:40.244Z,21.05
2018-08-17T03:35:20.810Z,21.14
2018-08-17T03:36:01.410Z,21.17
2018-08-17T03:36:42.005Z,21.12
2018-08-17T03:37:22.583Z,21.15
2018-08-17T03:38:03.192Z,21.14
2018-08-17T03:38:43.688Z,21.12
2018-08-17T03:39:24.269Z,21.06
2018-08-17T03:40:04.835Z,21.17
2018-08-17T03:40:45.469Z,21.12
2018-08-17T03:41:26.017Z,21.15
2018-08-17T03:42:06.595Z,21.17
2018-08-17T03:42:47.172Z,21.12
2018-08-17T03:43:27.741Z,21.07
2018-08-17T03:44:08.327Z,21.06
2018-08-17T03:44:48.900Z,21.12
2018-08-17T03:45:29.488Z,21.07
2018-08-17T03:46:10.023Z,21.06
2018-08-17T03:46:50.579Z,21.06
2018-08-17T03:47:31.181Z,21.03
2018-08-17T03:48:11.759Z,21.11
2018-08-17T03:48:52.317Z,21.09
2018-08-17T03:49:32.894Z,21.09
2018-08-17T03:50:13.461Z,21.09
2018-08-17T03:50:54.020Z,21.11
2018-08-17T03:51:34.576Z,21.05
2018-08-17T03:52:15.138Z,21.12
2018-08-17T03:52:55.743Z,21.07
2018-08-17T03:53:36.309Z,21.11
2018-08-17T03:54:16.881Z,21
2018-08-17T03:54:57.980Z,21.09
2018-08-17T03:55:38.646Z,21.07
2018-08-17T03:56:19.214Z,21.07
2018-08-17T03:56:59.921Z,21.03
2018-08-17T03:57:41.466Z,21.02
2018-08-17T03:58:22.053Z,20.99
2018-08-17T03:59:02.617Z,20.97
2018-08-17T03:59:44.165Z,20.9
2018-08-17T04:00:24.746Z,21.03
2018-08-17T04:01:05.325Z,21
2018-08-17T04:01:46.317Z,21.09
2018-08-17T04:02:26.874Z,20.97
2018-08-17T04:03:07.446Z,21.03
2018-08-17T04:03:48.044Z,21.09
2018-08-17T04:04:28.611Z,20.96
2018-08-17T04:05:09.201Z,20.87
2018-08-17T04:05:49.874Z,20.96
2018-08-17T04:06:30.504Z,20.96
2018-08-17T04:07:11.100Z,20.97
2018-08-17T04:07:51.663Z,20.85
2018-08-17T04:08:32.222Z,20.93
2018-08-17T04:09:12.802Z,20.87
2018-08-17T04:09:53.394Z,20.92
2018-08-17T04:10:33.956Z,20.9
2018-08-17T04:11:14.510Z,20.93
2018-08-17T04:11:55.066Z,20.87
2018-08-17T04:12:35.634Z,20.9
2018-08-17T04:13:16.213Z,20.92
2018-08-17T04:13:56.786Z,20.97
2018-08-17T04:14:37.352Z,20.88
2018-08-17T04:15:17.953Z,20.99
2018-08-17T04:15:58.492Z,20.92
2018-08-17T04:16:39.053Z,20.9
2018-08-17T04:17:19.626Z,20.85
2018-08-17T04:18:00.215Z,20.88
2018-08-17T04:18:40.775Z,20.92
2018-08-17T04:19:21.340Z,20.81
2018-08-17T04:20:01.923Z,20.93
2018-08-17T04:20:42.495Z,20.88
2018-08-17T04:21:23.043Z,20.85
2018-08-17T04:22:03.606Z,20.97
2018-08-17T04:22:44.186Z,20.84
2018-08-17T04:23:24.765Z,20.92
2018-08-17T04:24:05.331Z,20.95
2018-08-17T04:24:45.894Z,20.9
2018-08-17T04:25:26.458Z,20.93
2018-08-17T04:26:07.016Z,20.92
2018-08-17T04:26:47.574Z,20.92
2018-08-17T04:27:28.161Z,20.85
2018-08-17T04:28:08.714Z,20.87
2018-08-17T04:28:49.282Z,20.88
2018-08-17T04:29:29.839Z,20.84
2018-08-17T04:30:10.437Z,20.82
2018-08-17T04:30:51.004Z,20.87
2018-08-17T04:31:31.654Z,20.9
2018-08-17T04:32:12.209Z,20.88
2018-08-17T04:32:52.760Z,20.9
2018-08-17T04:33:33.311Z,20.92
2018-08-17T04:34:13.866Z,20.92
2018-08-17T04:34:54.457Z,20.92
2018-08-17T04:35:35.072Z,20.95
2018-08-17T04:36:15.600Z,20.93
2018-08-17T04:36:56.179Z,21.05
2018-08-17T04:37:36.712Z,20.96
2018-08-17T04:38:17.277Z,20.99
2018-08-17T04:38:57.853Z,21.02
2018-08-17T04:39:38.418Z,21.07
2018-08-17T04:40:18.997Z,21.11
2018-08-17T04:40:59.570Z,21.09
2018-08-17T04:41:40.132Z,21.03
2018-08-17T04:42:20.715Z,21.14
2018-08-17T04:43:01.269Z,21.14
2018-08-17T04:43:41.843Z,21.06
2018-08-17T04:44:22.385Z,21.14
2018-08-17T04:45:02.956Z,21.07
2018-08-17T04:45:43.529Z,21.15
2018-08-17T04:46:24.108Z,21.15
2018-08-17T04:47:04.680Z,21.14
2018-08-17T04:47:45.248Z,21.05
2018-08-17T04:48:25.822Z,21.06
2018-08-17T04:49:06.441Z,21.18
2018-08-17T04:49:46.965Z,21.18
2018-08-17T04:50:27.819Z,21.18
2018-08-17T04:51:08.387Z,21.2
2018-08-17T04:51:48.916Z,21.25
2018-08-17T04:52:29.522Z,21.18
2018-08-17T04:53:10.123Z,21.2
2018-08-17T04:53:50.700Z,21.17
2018-08-17T04:54:31.351Z,21.11
2018-08-17T04:55:11.967Z,21.2
2018-08-17T04:55:52.545Z,21.2
2018-08-17T04:56:33.113Z,21.14
2018-08-17T04:57:13.668Z,21.15
2018-08-17T04:57:54.257Z,21.14
2018-08-17T04:58:34.913Z,21.18
2018-08-17T04:59:15.474Z,21.17
2018-08-17T04:59:56.042Z,21.12
2018-08-17T05:00:36.604Z,21.21
2018-08-17T05:01:17.177Z,21.29
2018-08-17T05:01:57.770Z,21.2
2018-08-17T05:02:38.325Z,21.17
2018-08-17T05:03:18.939Z,21.25
2018-08-17T05:03:59.462Z,21.17
2018-08-17T05:04:40.037Z,21.17
2018-08-17T05:05:20.604Z,21.12
2018-08-17T05:06:01.173Z,21.21
2018-08-17T05:06:41.761Z,21.25
2018-08-17T05:07:22.313Z,21.22
2018-08-17T05:08:02.880Z,21.15
2018-08-17T05:08:43.440Z,21.24
2018-08-17T05:09:24.169Z,21.21
2018-08-17T05:10:04.734Z,21.18
2018-08-17T05:10:45.318Z,21.18
2018-08-17T05:11:25.879Z,21.3
2018-08-17T05:12:06.468Z,21.35
2018-08-17T05:12:47.044Z,21.43
2018-08-17T05:13:27.613Z,21.4
2018-08-17T05:14:08.194Z,21.37
2018-08-17T05:14:48.754Z,21.39
2018-08-17T05:15:29.359Z,21.48
2018-08-17T05:16:09.940Z,21.43
2018-08-17T05:16:50.511Z,21.5
2018-08-17T05:17:31.096Z,21.42
2018-08-17T05:18:11.681Z,21.46
2018-08-17T05:18:52.248Z,21.42
2018-08-17T05:19:32.855Z,21.45
2018-08-17T05:20:13.446Z,21.5
2018-08-17T05:20:54.015Z,21.46
2018-08-17T05:21:34.680Z,21.39
2018-08-17T05:22:15.145Z,21.46
2018-08-17T05:22:55.708Z,21.43
2018-08-17T05:23:36.273Z,21.42
2018-08-17T05:24:16.839Z,21.45
2018-08-17T05:24:57.410Z,21.51
2018-08-17T05:25:37.955Z,21.48
2018-08-17T05:26:18.523Z,21.54
2018-08-17T05:26:59.084Z,21.45
2018-08-17T05:27:39.707Z,21.48
2018-08-17T05:28:20.299Z,21.45
2018-08-17T05:29:00.832Z,21.51
2018-08-17T05:29:41.425Z,21.55
2018-08-17T05:30:21.977Z,21.45
2018-08-17T05:31:02.576Z,21.46
2018-08-17T05:31:43.133Z,21.54
2018-08-17T05:32:23.770Z,21.61
2018-08-17T05:33:04.328Z,21.54
2018-08-17T05:33:44.888Z,21.55
2018-08-17T05:34:25.439Z,21.61
2018-08-17T05:35:06.011Z,21.57
2018-08-17T05:35:46.582Z,21.57
2018-08-17T05:36:27.198Z,21.58
2018-08-17T05:37:07.830Z,21.5
2018-08-17T05:37:48.424Z,21.6
2018-08-17T05:38:28.967Z,21.51
2018-08-17T05:39:09.527Z,21.51
2018-08-17T05:39:50.077Z,21.62
2018-08-17T05:40:30.661Z,21.75
2018-08-17T05:41:11.261Z,21.69
2018-08-17T05:41:51.893Z,21.7
2018-08-17T05:42:32.477Z,21.62
2018-08-17T05:43:13.044Z,21.69
2018-08-17T05:43:53.598Z,21.62
2018-08-17T05:44:34.177Z,21.66
2018-08-17T05:45:14.788Z,21.77
2018-08-17T05:45:55.374Z,21.75
2018-08-17T05:46:35.929Z,21.82
2018-08-17T05:47:16.491Z,21.76
2018-08-17T05:47:57.078Z,21.82
2018-08-17T05:48:38.013Z,21.8
2018-08-17T05:49:18.593Z,21.77
2018-08-17T05:49:59.197Z,21.79
2018-08-17T05:50:41.400Z,21.8
2018-08-17T05:51:21.990Z,21.8
2018-08-17T05:52:02.546Z,21.91
2018-08-17T05:52:43.121Z,21.92
2018-08-17T05:53:23.733Z,21.91
2018-08-17T05:54:04.461Z,21.88
2018-08-17T05:54:44.974Z,21.91
2018-08-17T05:55:25.535Z,21.8
2018-08-17T05:56:06.113Z,21.92
2018-08-17T05:56:46.951Z,21.88
2018-08-17T05:57:27.458Z,21.85
2018-08-17T05:58:08.015Z,21.89
2018-08-17T05:58:48.582Z,21.91
2018-08-17T05:59:29.156Z,21.95
2018-08-17T06:00:09.756Z,21.91
2018-08-17T06:00:50.386Z,21.99
2018-08-17T06:01:30.972Z,22
2018-08-17T06:02:11.524Z,22.04
2018-08-17T06:02:52.215Z,22
2018-08-17T06:03:32.786Z,22.04
2018-08-17T06:04:13.328Z,22.07
2018-08-17T06:04:53.887Z,22.18
2018-08-17T06:05:34.436Z,22.2
2018-08-17T06:06:15.011Z,22.22
2018-08-17T06:06:55.586Z,22.28
2018-08-17T06:07:36.389Z,22.26
2018-08-17T06:08:17.217Z,22.38
2018-08-17T06:08:57.790Z,22.28
2018-08-17T06:09:38.534Z,22.32
2018-08-17T06:10:19.260Z,22.39
2018-08-17T06:10:59.865Z,22.45
2018-08-17T06:11:40.494Z,22.43
2018-08-17T06:12:21.057Z,22.53
2018-08-17T06:13:02.061Z,22.59
2018-08-17T06:13:43.055Z,22.66
2018-08-17T06:14:23.624Z,22.72
2018-08-17T06:15:04.217Z,22.8
2018-08-17T06:15:44.804Z,22.76
2018-08-17T06:16:25.357Z,22.88
2018-08-17T06:17:05.918Z,22.99
2018-08-17T06:17:46.482Z,22.93
2018-08-17T06:18:27.054Z,23.08
2018-08-17T06:19:07.617Z,23.13
2018-08-17T06:19:48.188Z,23.21
2018-08-17T06:20:28.803Z,23.31
2018-08-17T06:21:09.363Z,23.36
2018-08-17T06:21:49.946Z,23.44
2018-08-17T06:22:30.530Z,23.58
2018-08-17T06:23:11.123Z,23.55
2018-08-17T06:23:51.715Z,23.69
2018-08-17T06:24:32.258Z,23.78
2018-08-17T06:25:12.836Z,23.87
2018-08-17T06:25:53.441Z,23.99
2018-08-17T06:26:34.005Z,23.98
2018-08-17T06:27:21.439Z,24.08
2018-08-17T06:28:58.955Z,24.26
2018-08-17T06:29:39.507Z,24.28
2018-08-17T06:30:20.248Z,24.29
2018-08-17T06:31:01.018Z,24.29
2018-08-17T06:31:41.723Z,24.45
2018-08-17T06:32:22.286Z,24.45
2018-08-17T06:33:02.866Z,24.58
2018-08-17T06:33:43.467Z,24.74
2018-08-17T06:34:24.049Z,24.77
2018-08-17T06:35:04.677Z,24.92
2018-08-17T06:35:45.257Z,24.96
2018-08-17T06:36:25.864Z,25.07
2018-08-17T06:37:06.519Z,25.18
2018-08-17T06:37:47.041Z,25.31
2018-08-17T06:38:27.617Z,25.28
2018-08-17T06:39:08.356Z,25.41
2018-08-17T06:39:48.977Z,25.43
2018-08-17T06:40:29.532Z,25.48
2018-08-17T06:41:10.168Z,25.51
2018-08-17T06:41:50.700Z,25.53
2018-08-17T06:42:31.272Z,25.65
2018-08-17T06:43:11.839Z,25.65
2018-08-17T06:43:52.438Z,25.78
2018-08-17T06:44:33.058Z,25.84
2018-08-17T06:45:18.354Z,25.99
2018-08-17T06:45:58.968Z,26.02
2018-08-17T06:46:39.557Z,26.13
2018-08-17T06:47:20.141Z,26.1
2018-08-17T06:48:01.407Z,26.19
2018-08-17T06:48:41.985Z,26.18
2018-08-17T06:49:22.599Z,26.28
2018-08-17T06:50:03.492Z,26.25
2018-08-17T06:50:44.479Z,26.31
2018-08-17T06:51:24.981Z,26.37
2018-08-17T06:52:05.648Z,26.47
2018-08-17T06:52:46.190Z,26.51
2018-08-17T06:53:26.810Z,26.59
2018-08-17T06:54:08.028Z,26.68
2018-08-17T06:54:48.428Z,26.77
2018-08-17T06:55:29.030Z,26.71
2018-08-17T06:56:09.842Z,26.74
2018-08-17T06:56:50.595Z,26.78
2018-08-17T06:57:31.240Z,26.83
2018-08-17T06:58:12.052Z,26.81
2018-08-17T06:58:52.861Z,26.92
2018-08-17T06:59:33.911Z,26.92
2018-08-17T07:00:14.666Z,26.93
2018-08-17T07:00:55.377Z,26.95
2018-08-17T07:01:36.115Z,26.92
2018-08-17T07:02:16.731Z,26.93
2018-08-17T07:03:04.121Z,27.03
2018-08-17T07:03:44.766Z,27.08
2018-08-17T07:04:25.877Z,27.05
2018-08-17T07:05:06.493Z,27.15
2018-08-17T07:05:47.080Z,27.07
2018-08-17T07:06:27.656Z,27.03
2018-08-17T07:07:08.215Z,27.22
2018-08-17T07:07:48.850Z,27.1
2018-08-17T07:08:29.465Z,27.27
2018-08-17T07:09:10.344Z,27.29
2018-08-17T07:09:51.380Z,27.37
2018-08-17T07:10:31.773Z,27.4
2018-08-17T07:11:12.411Z,27.47
2018-08-17T07:11:52.984Z,27.4
2018-08-17T07:12:33.561Z,27.45
2018-08-17T07:13:14.119Z,27.49
2018-08-17T07:13:54.824Z,27.52
2018-08-17T07:14:35.429Z,27.67
2018-08-17T07:15:16.021Z,27.74
2018-08-17T07:15:56.602Z,27.73
2018-08-17T07:16:37.297Z,27.86
2018-08-17T07:17:17.776Z,27.89
2018-08-17T07:17:58.349Z,27.92
2018-08-17T07:18:38.933Z,27.98
2018-08-17T07:19:19.497Z,27.96
2018-08-17T07:20:00.079Z,28.02
2018-08-17T07:20:40.649Z,28.02
2018-08-17T07:21:21.221Z,27.98
2018-08-17T07:22:01.801Z,28.01
2018-08-17T07:22:42.436Z,28.08
2018-08-17T07:23:23.062Z,28.17
2018-08-17T07:24:03.667Z,28.19
2018-08-17T07:24:44.273Z,28.26
2018-08-17T07:25:24.924Z,28.25
2018-08-17T07:26:05.537Z,28.26
2018-08-17T07:26:46.207Z,28.26
2018-08-17T07:27:26.703Z,28.27
2018-08-17T07:28:07.353Z,28.27
2018-08-17T07:28:47.860Z,28.19
2018-08-17T07:29:28.434Z,28.26
2018-08-17T07:30:09.054Z,28.25
2018-08-17T07:30:49.634Z,28.27
2018-08-17T07:31:30.397Z,28.29
2018-08-17T07:32:11.005Z,28.41
2018-08-17T07:32:51.713Z,28.44
2018-08-17T07:33:32.302Z,28.51
2018-08-17T07:34:12.888Z,28.51
2018-08-17T07:34:53.485Z,28.59
2018-08-17T07:35:34.132Z,28.59
2018-08-17T07:36:14.668Z,28.57
2018-08-17T07:36:55.257Z,28.66
2018-08-17T07:37:36.068Z,28.7
2018-08-17T07:38:16.660Z,28.74
2018-08-17T07:38:57.239Z,28.75
2018-08-17T07:39:37.848Z,28.84
2018-08-17T07:40:18.470Z,28.78
2018-08-17T07:40:59.086Z,28.94
2018-08-17T07:41:39.820Z,28.93
2018-08-17T07:42:20.306Z,28.98
2018-08-17T07:43:01.291Z,29.01
2018-08-17T07:43:41.890Z,28.98
2018-08-17T07:44:22.441Z,29.02
2018-08-17T07:45:03.010Z,29.12
2018-08-17T07:45:43.600Z,29.16
2018-08-17T07:46:24.186Z,29.2
2018-08-17T07:47:04.773Z,29.24
2018-08-17T07:47:45.347Z,29.26
2018-08-17T07:48:25.979Z,29.32
2018-08-17T07:49:06.663Z,29.27
2018-08-17T07:49:47.255Z,29.26
2018-08-17T07:50:27.826Z,29.22
2018-08-17T07:51:08.445Z,29.24
2018-08-17T07:51:49.010Z,29.35
2018-08-17T07:52:29.620Z,29.47
2018-08-17T07:53:10.195Z,29.35
2018-08-17T07:53:50.826Z,29.32
2018-08-17T07:54:31.410Z,29.39
2018-08-17T07:55:12.023Z,29.41
2018-08-17T07:55:52.607Z,29.42
2018-08-17T07:56:33.193Z,29.45
2018-08-17T07:57:13.821Z,29.42
2018-08-17T07:57:54.371Z,29.42
2018-08-17T07:58:34.950Z,29.44
2018-08-17T07:59:15.521Z,29.5
2018-08-17T07:59:56.159Z,29.44
2018-08-17T08:00:36.712Z,29.44
2018-08-17T08:01:17.314Z,29.53
2018-08-17T08:01:57.886Z,29.45
2018-08-17T08:02:38.464Z,29.59
2018-08-17T08:03:19.086Z,29.49
2018-08-17T08:03:59.674Z,29.49
2018-08-17T08:04:40.290Z,29.47
2018-08-17T08:05:20.847Z,29.41
2018-08-17T08:06:01.439Z,29.47
2018-08-17T08:06:42.029Z,29.57
2018-08-17T08:07:22.700Z,29.5
2018-08-17T08:08:03.489Z,29.59
2018-08-17T08:08:44.101Z,29.45
2018-08-17T08:09:24.673Z,29.49
2018-08-17T08:10:05.449Z,29.5
2018-08-17T08:10:46.089Z,29.45
2018-08-17T08:11:26.733Z,29.45
2018-08-17T08:12:07.299Z,29.59
2018-08-17T08:12:47.885Z,29.53
2018-08-17T08:13:28.512Z,29.42
2018-08-17T08:14:09.108Z,29.41
2018-08-17T08:14:49.687Z,29.45
2018-08-17T08:15:30.294Z,29.5
2018-08-17T08:16:10.934Z,29.36
2018-08-17T08:16:51.529Z,29.44
2018-08-17T08:17:32.104Z,29.44
2018-08-17T08:18:12.713Z,29.36
2018-08-17T08:18:53.353Z,29.38
2018-08-17T08:19:33.942Z,29.35
2018-08-17T08:20:14.560Z,29.41
2018-08-17T08:20:55.133Z,29.45
2018-08-17T08:21:35.765Z,29.38
2018-08-17T08:22:16.559Z,29.38
2018-08-17T08:22:57.318Z,29.42
2018-08-17T08:23:38.181Z,29.29
2018-08-17T08:24:18.999Z,29.45
2018-08-17T08:25:00.461Z,29.45
2018-08-17T08:25:41.051Z,29.35
2018-08-17T08:26:21.671Z,29.45
2018-08-17T08:27:02.280Z,29.38
2018-08-17T08:27:42.980Z,29.47
2018-08-17T08:28:23.569Z,29.38
2018-08-17T08:29:04.167Z,29.5
2018-08-17T08:29:44.759Z,29.49
2018-08-17T08:30:25.372Z,29.42
2018-08-17T08:31:05.952Z,29.36
2018-08-17T08:31:46.538Z,29.45
2018-08-17T08:32:27.165Z,29.42
2018-08-17T08:33:07.727Z,29.47
2018-08-17T08:33:48.464Z,29.5
2018-08-17T08:34:29.069Z,29.57
2018-08-17T08:35:09.669Z,29.57
2018-08-17T08:35:50.276Z,29.45
2018-08-17T08:36:30.878Z,29.54
2018-08-17T08:37:11.449Z,29.5
2018-08-17T08:37:52.044Z,29.56
2018-08-17T08:38:32.626Z,29.51
2018-08-17T08:39:13.267Z,29.51
2018-08-17T08:39:53.853Z,29.59
2018-08-17T08:40:34.558Z,29.54
2018-08-17T08:41:15.141Z,29.5
2018-08-17T08:41:55.731Z,29.49
2018-08-17T08:42:36.542Z,29.54
2018-08-17T08:43:17.139Z,29.44
2018-08-17T08:43:57.699Z,29.56
2018-08-17T08:44:38.326Z,29.49
2018-08-17T08:45:18.891Z,29.49
2018-08-17T08:45:59.482Z,29.45